Time;durP1;ratioP1;P1;durP2;ratioP2;P2;SDS_P1;SDS_P2;PMS_P1;PMS_P2;Temp;Humidity;BMP_temperature;BMP_pressure;BME280_temperature;BME280_humidity;BME280_pressure;Samples;Min_cycle;Max_cycle;Signal;HPM_P1;HPM_P2
2023/09/02 00:00:39;;;;;;;7.15;4.75;;;12.90;99.90;;;;;;8309240;28;20546;-88
2023/09/02 00:04:39;;;;;;;6.57;4.45;;;13.00;99.90;;;;;;8312300;28;20025;-88
2023/09/02 00:08:41;;;;;;;6.75;4.22;;;12.90;99.90;;;;;;8315967;28;20056;-87
2023/09/02 00:12:42;;;;;;;9.00;4.47;;;12.80;99.90;;;;;;8313228;28;20061;-87
2023/09/02 00:16:42;;;;;;;5.65;4.60;;;12.70;99.90;;;;;;8310521;28;20071;-87
2023/09/02 00:20:43;;;;;;;6.65;4.80;;;12.70;99.90;;;;;;8311345;28;20494;-87
2023/09/02 00:24:43;;;;;;;8.63;4.07;;;12.70;99.90;;;;;;8308736;28;20079;-88
2023/09/02 00:28:44;;;;;;;7.78;4.35;;;12.60;99.90;;;;;;8315412;28;20031;-87
2023/09/02 00:32:44;;;;;;;7.43;4.68;;;12.50;99.90;;;;;;8314615;28;20061;-88
2023/09/02 00:36:45;;;;;;;8.75;4.75;;;12.50;99.90;;;;;;8311936;28;20113;-87
2023/09/02 00:40:55;;;;;;;7.90;4.90;;;12.40;99.90;;;;;;8311708;28;20049;-87
2023/09/02 00:44:56;;;;;;;;;;;12.40;99.90;;;;;;8300461;28;20021;-87
2023/09/02 00:48:57;;;;;;;7.03;4.68;;;12.30;99.90;;;;;;8313232;28;19948;-87
2023/09/02 00:52:57;;;;;;;7.15;4.63;;;12.30;99.90;;;;;;8311647;28;20034;-88
2023/09/02 00:56:58;;;;;;;8.30;4.50;;;12.60;99.90;;;;;;8307863;28;20030;-88
2023/09/02 01:01:00;;;;;;;6.05;4.43;;;12.70;99.90;;;;;;8308961;28;20062;-87
2023/09/02 01:05:02;;;;;;;10.20;5.10;;;12.60;99.90;;;;;;8321102;28;20021;-85
2023/09/02 01:09:04;;;;;;;5.78;4.05;;;12.70;99.90;;;;;;8329433;28;20533;-86
2023/09/02 01:13:04;;;;;;;7.78;4.65;;;12.40;99.90;;;;;;8328686;28;20044;-86
2023/09/02 01:17:05;;;;;;;5.30;4.30;;;12.30;99.90;;;;;;8329641;28;20494;-87
2023/09/02 01:21:22;;;;;;;6.03;4.13;;;12.10;99.90;;;;;;8333206;28;20757;-86
2023/09/02 01:25:53;;;;;;;9.45;5.30;;;12.00;99.90;;;;;;8346693;28;20077;-86
2023/09/02 01:30:14;;;;;;;7.95;4.53;;;11.80;99.90;;;;;;8318301;28;20034;-84
2023/09/02 01:34:18;;;;;;;12.93;6.65;;;11.70;99.90;;;;;;8343599;28;20081;-85
2023/09/02 01:38:24;;;;;;;6.47;5.32;;;11.70;99.90;;;;;;8322062;28;20118;-86
2023/09/02 01:42:25;;;;;;;5.28;4.65;;;11.70;99.90;;;;;;8315879;28;20025;-85
2023/09/02 01:46:26;;;;;;;9.40;5.85;;;11.60;99.90;;;;;;8325042;28;20048;-86
2023/09/02 01:50:30;;;;;;;8.63;5.10;;;11.60;99.90;;;;;;8324772;28;20033;-86
2023/09/02 01:54:31;;;;;;;9.00;5.50;;;11.50;99.90;;;;;;8328303;28;20033;-86
2023/09/02 01:58:32;;;;;;;7.00;4.50;;;11.50;99.90;;;;;;8332845;28;20029;-86
2023/09/02 02:02:32;;;;;;;8.65;5.22;;;11.30;99.90;;;;;;8333133;28;20049;-86
2023/09/02 02:06:35;;;;;;;8.65;4.78;;;11.30;99.90;;;;;;8326912;28;20022;-86
2023/09/02 02:10:38;;;;;;;7.50;4.85;;;11.30;99.90;;;;;;8328342;28;20097;-87
2023/09/02 02:14:39;;;;;;;7.47;4.93;;;11.30;99.90;;;;;;8327789;28;20021;-85
2023/09/02 02:18:39;;;;;;;8.73;5.20;;;11.20;99.90;;;;;;8329084;28;20052;-85
2023/09/02 02:22:40;;;;;;;6.68;5.22;;;11.20;99.90;;;;;;8342886;28;20041;-85
2023/09/02 02:26:41;;;;;;;10.07;5.32;;;11.20;99.90;;;;;;8327138;28;20116;-86
2023/09/02 02:30:41;;;;;;;8.73;5.53;;;11.20;99.90;;;;;;8344221;28;20104;-86
2023/09/02 02:34:42;;;;;;;8.75;4.93;;;11.30;99.90;;;;;;8329742;28;20021;-86
2023/09/02 02:38:42;;;;;;;6.05;4.88;;;11.30;99.90;;;;;;8332087;28;20026;-86
2023/09/02 02:42:43;;;;;;;8.68;5.13;;;11.10;99.90;;;;;;8346767;28;20065;-86
2023/09/02 02:46:44;;;;;;;7.85;5.07;;;11.20;99.90;;;;;;8318597;28;20113;-85
2023/09/02 02:50:44;;;;;;;7.22;4.57;;;11.20;99.90;;;;;;8327122;28;20049;-85
2023/09/02 02:54:45;;;;;;;9.13;4.82;;;11.00;99.90;;;;;;8337791;28;20025;-86
2023/09/02 02:58:45;;;;;;;8.05;5.22;;;11.00;99.90;;;;;;8321790;28;20029;-86
2023/09/02 03:02:46;;;;;;;9.40;5.25;;;10.90;99.90;;;;;;8329656;28;20036;-86
2023/09/02 03:06:46;;;;;;;9.30;5.55;;;11.00;99.90;;;;;;8344793;28;20016;-84
2023/09/02 03:11:01;;;;;;;7.18;4.90;;;11.00;99.90;;;;;;8335132;28;20057;-86
2023/09/02 03:15:03;;;;;;;9.77;5.75;;;11.00;99.90;;;;;;8332462;28;20120;-86
2023/09/02 03:19:04;;;;;;;11.23;6.05;;;10.90;99.90;;;;;;8327977;28;20080;-86
2023/09/02 03:23:05;;;;;;;8.02;5.78;;;10.90;99.90;;;;;;8334480;28;20057;-86
2023/09/02 03:27:05;;;;;;;8.57;6.10;;;10.90;99.90;;;;;;8320518;28;20025;-86
2023/09/02 03:31:07;;;;;;;8.20;6.22;;;10.90;99.90;;;;;;8341806;28;20068;-86
2023/09/02 03:35:08;;;;;;;7.97;5.18;;;11.00;99.90;;;;;;8326008;28;20033;-86
2023/09/02 03:39:09;;;;;;;8.60;5.85;;;10.90;99.90;;;;;;8328261;28;20410;-86
2023/09/02 03:43:09;;;;;;;8.88;6.38;;;10.80;99.90;;;;;;8330412;28;20033;-85
2023/09/02 03:47:10;;;;;;;9.23;5.90;;;10.80;99.90;;;;;;8328082;28;20025;-86
2023/09/02 03:51:16;;;;;;;9.73;6.00;;;10.70;99.90;;;;;;8327299;28;20026;-86
2023/09/02 03:55:16;;;;;;;8.77;6.72;;;10.70;99.90;;;;;;8325529;28;20061;-86
2023/09/02 03:59:19;;;;;;;8.48;6.35;;;10.60;99.90;;;;;;8328832;28;20033;-85
2023/09/02 04:03:21;;;;;;;7.82;6.43;;;10.60;99.90;;;;;;8330383;28;20041;-86
2023/09/02 04:07:21;;;;;;;7.97;5.57;;;10.60;99.90;;;;;;8336280;28;20037;-85
2023/09/02 04:11:23;;;;;;;11.27;5.88;;;10.50;99.90;;;;;;8339989;28;20021;-86
2023/09/02 04:15:23;;;;;;;7.38;5.03;;;10.60;99.90;;;;;;8340089;28;20029;-87
2023/09/02 04:19:24;;;;;;;7.85;5.70;;;10.50;99.90;;;;;;8332019;28;20331;-85
2023/09/02 04:23:24;;;;;;;7.72;5.30;;;10.30;99.90;;;;;;8338419;28;20164;-85
2023/09/02 04:27:25;;;;;;;6.82;4.57;;;10.40;99.90;;;;;;8337781;28;20041;-86
2023/09/02 04:31:26;;;;;;;8.80;5.40;;;10.40;99.90;;;;;;8327563;28;20033;-86
2023/09/02 04:35:26;;;;;;;7.95;6.78;;;10.50;99.90;;;;;;8332494;28;20156;-86
2023/09/02 04:39:27;;;;;;;8.57;6.00;;;10.40;99.90;;;;;;8336280;28;20025;-86
2023/09/02 04:43:28;;;;;;;10.40;6.30;;;10.50;99.90;;;;;;8340545;28;20029;-86
2023/09/02 04:47:28;;;;;;;9.68;6.35;;;10.70;99.90;;;;;;8342603;28;20051;-86
2023/09/02 04:51:29;;;;;;;12.13;6.90;;;10.60;99.90;;;;;;8333354;28;20026;-86
2023/09/02 04:55:30;;;;;;;12.20;7.22;;;10.60;99.90;;;;;;8338345;28;20033;-84
2023/09/02 04:59:30;;;;;;;12.25;6.03;;;10.70;99.90;;;;;;8351269;28;20144;-84
2023/09/02 05:03:31;;;;;;;9.77;6.07;;;10.70;99.90;;;;;;8334518;28;20018;-86
2023/09/02 05:07:31;;;;;;;11.25;6.07;;;10.70;99.90;;;;;;8327650;28;20024;-87
2023/09/02 05:11:32;;;;;;;12.57;5.70;;;10.70;99.90;;;;;;8353326;28;20048;-85
2023/09/02 05:15:33;;;;;;;6.13;5.13;;;10.70;99.90;;;;;;8334009;28;20026;-86
2023/09/02 05:19:33;;;;;;;9.60;5.22;;;10.90;99.90;;;;;;8330346;28;20021;-86
2023/09/02 05:23:34;;;;;;;9.50;8.13;;;11.00;99.90;;;;;;8326856;28;20175;-86
2023/09/02 05:27:36;;;;;;;10.38;7.55;;;11.00;99.90;;;;;;8336157;28;20052;-86
2023/09/02 05:31:37;;;;;;;12.60;7.25;;;11.10;99.90;;;;;;8329976;28;20109;-86
2023/09/02 05:35:37;;;;;;;9.10;6.80;;;11.30;99.90;;;;;;8329633;28;20057;-86
2023/09/02 05:39:38;;;;;;;10.45;6.30;;;11.40;99.90;;;;;;8336911;28;20025;-86
2023/09/02 05:43:39;;;;;;;7.65;5.80;;;11.60;99.90;;;;;;8328463;28;20048;-85
2023/09/02 05:47:39;;;;;;;9.02;5.22;;;11.90;99.90;;;;;;8330363;28;20032;-85
2023/09/02 05:51:40;;;;;;;11.55;4.85;;;11.90;99.90;;;;;;8330578;28;20121;-86
2023/09/02 05:55:40;;;;;;;7.90;4.97;;;12.00;99.90;;;;;;8328815;28;20041;-86
2023/09/02 05:59:44;;;;;;;5.97;5.10;;;12.00;99.90;;;;;;8333228;28;20083;-85
2023/09/02 06:03:45;;;;;;;8.38;5.57;;;12.10;99.90;;;;;;8325804;28;20068;-85
2023/09/02 06:07:45;;;;;;;6.43;5.00;;;12.30;99.90;;;;;;8330594;28;20051;-86
2023/09/02 06:11:46;;;;;;;8.63;5.22;;;12.60;99.90;;;;;;8328270;28;20184;-86
2023/09/02 06:15:46;;;;;;;8.52;4.97;;;12.70;99.90;;;;;;8331598;28;20097;-86
2023/09/02 06:19:47;;;;;;;7.35;5.25;;;12.70;99.90;;;;;;8329949;28;20029;-86
2023/09/02 06:23:48;;;;;;;6.55;5.30;;;13.00;99.90;;;;;;8334107;28;20032;-85
2023/09/02 06:27:48;;;;;;;6.93;4.90;;;13.20;99.90;;;;;;8332134;28;20026;-86
2023/09/02 06:31:49;;;;;;;6.45;5.32;;;13.30;99.90;;;;;;8329960;28;20057;-86
2023/09/02 06:35:50;;;;;;;6.90;5.00;;;13.30;99.90;;;;;;8330702;28;20040;-86
2023/09/02 06:39:53;;;;;;;6.38;4.85;;;13.50;99.90;;;;;;8319057;28;20833;-86
2023/09/02 06:43:54;;;;;;;6.65;4.63;;;13.70;99.90;;;;;;8326176;28;20029;-85
2023/09/02 06:47:55;;;;;;;6.10;4.82;;;13.90;99.90;;;;;;8344593;28;20107;-86
2023/09/02 06:51:55;;;;;;;6.13;4.68;;;14.10;99.90;;;;;;8327901;28;20075;-85
2023/09/02 06:55:56;;;;;;;5.45;4.18;;;14.60;99.90;;;;;;8328392;28;20044;-86
2023/09/02 06:59:56;;;;;;;6.35;4.00;;;14.70;99.90;;;;;;8331351;28;20033;-86
2023/09/02 07:03:57;;;;;;;7.68;4.72;;;15.00;99.90;;;;;;8336836;22;20038;-77
2023/09/02 07:07:59;;;;;;;7.10;4.43;;;15.20;99.90;;;;;;8292207;28;20026;-76
2023/09/02 07:12:00;;;;;;;6.60;4.30;;;15.60;99.90;;;;;;8281787;28;20181;-76
2023/09/02 07:24:20;;;;;;;4.10;3.47;;;17.20;99.90;;;;;;8263628;28;20053;-83
2023/09/02 07:28:21;;;;;;;4.63;3.42;;;17.60;99.90;;;;;;8235329;28;20044;-84
2023/09/02 07:32:21;;;;;;;6.30;3.45;;;18.50;99.90;;;;;;8224267;28;20386;-85
2023/09/02 07:36:22;;;;;;;4.35;3.20;;;18.70;99.90;;;;;;8226276;28;20033;-86
2023/09/02 07:40:22;;;;;;;3.20;2.90;;;19.10;99.90;;;;;;8229855;28;20078;-83
2023/09/02 07:44:23;;;;;;;4.68;2.80;;;20.00;99.90;;;;;;8218010;28;20077;-83
2023/09/02 07:48:24;;;;;;;5.32;2.53;;;21.00;99.90;;;;;;8234679;28;20030;-84
2023/09/02 07:52:24;;;;;;;6.60;3.00;;;22.30;99.90;;;;;;8234648;28;20030;-83
2023/09/02 07:56:25;;;;;;;4.82;3.33;;;22.10;99.90;;;;;;8236695;28;20030;-83
2023/09/02 08:00:26;;;;;;;5.13;3.08;;;21.90;99.90;;;;;;8231355;28;20034;-83
2023/09/02 08:04:26;;;;;;;3.30;2.97;;;21.80;99.90;;;;;;8233874;28;20066;-84
2023/09/02 08:08:27;;;;;;;5.43;3.42;;;21.90;99.90;;;;;;8228239;28;20542;-84
2023/09/02 08:12:27;;;;;;;5.75;3.85;;;21.60;99.90;;;;;;8241332;28;20038;-83
2023/09/02 08:16:28;;;;;;;4.80;3.35;;;21.90;99.90;;;;;;8224887;28;20558;-84
2023/09/02 08:20:30;;;;;;;3.88;3.00;;;22.80;99.90;;;;;;8245556;28;20059;-84
2023/09/02 08:24:30;;;;;;;3.88;2.65;;;23.10;99.90;;;;;;8226418;28;20031;-85
2023/09/02 08:28:31;;;;;;;4.60;2.72;;;23.30;99.90;;;;;;8229348;28;20038;-85
2023/09/02 08:32:32;;;;;;;4.07;2.58;;;23.60;99.90;;;;;;8232374;28;20034;-85
2023/09/02 08:36:33;;;;;;;3.60;2.78;;;23.80;99.90;;;;;;8239427;28;20019;-85
2023/09/02 08:40:33;;;;;;;4.63;2.40;;;24.40;99.90;;;;;;8223918;28;20526;-85
2023/09/02 08:44:38;;;;;;;4.18;2.30;;;24.60;99.90;;;;;;8252329;28;20019;-85
2023/09/02 08:48:42;;;;;;;3.95;2.28;;;24.70;99.90;;;;;;8218714;28;20041;-85
2023/09/02 08:52:44;;;;;;;4.45;2.28;;;24.90;99.90;;;;;;8235494;28;20048;-85
2023/09/02 08:56:45;;;;;;;2.75;1.92;;;25.40;99.90;;;;;;8222117;28;20038;-85
2023/09/02 09:00:47;;;;;;;2.75;1.60;;;25.60;99.90;;;;;;8228903;28;20034;-86
2023/09/02 09:04:48;;;;;;;3.20;1.90;;;25.70;99.90;;;;;;8226264;28;20483;-86
2023/09/02 09:08:52;;;;;;;3.78;1.92;;;25.70;99.90;;;;;;8228904;28;20027;-85
2023/09/02 09:12:54;;;;;;;6.85;2.28;;;25.90;99.90;;;;;;8236874;28;20472;-86
2023/09/02 09:16:56;;;;;;;2.25;1.83;;;26.20;99.90;;;;;;8222928;28;20030;-85
2023/09/02 09:20:57;;;;;;;3.22;1.83;;;26.10;99.90;;;;;;8229900;28;20630;-86
2023/09/02 09:24:57;;;;;;;4.10;1.80;;;26.40;99.90;;;;;;8227785;28;20030;-86
2023/09/02 09:28:58;;;;;;;2.17;1.55;;;26.40;99.90;;;;;;8235904;28;20399;-86
2023/09/02 09:33:01;;;;;;;2.55;1.60;;;26.40;99.90;;;;;;8228568;28;20035;-85
2023/09/02 09:37:01;;;;;;;4.72;1.80;;;26.40;99.90;;;;;;8231897;28;20080;-87
2023/09/02 09:41:08;;;;;;;2.92;1.75;;;26.40;99.90;;;;;;8213742;28;20030;-86
2023/09/02 09:45:08;;;;;;;7.68;3.58;;;26.60;99.90;;;;;;8226934;28;20031;-86
2023/09/02 09:49:27;;;;;;;2.38;1.70;;;26.90;99.90;;;;;;8233255;28;20157;-85
2023/09/02 09:53:32;;;;;;;4.03;1.63;;;27.30;99.90;;;;;;8248176;28;20554;-85
2023/09/02 09:57:37;;;;;;;2.78;1.85;;;27.40;99.90;;;;;;8230554;28;20023;-85
2023/09/02 10:01:38;;;;;;;4.10;1.80;;;27.50;99.90;;;;;;8231567;28;20023;-85
2023/09/02 10:05:38;;;;;;;5.75;1.77;;;27.80;99.90;;;;;;8239826;28;20027;-85
2023/09/02 10:09:45;;;;;;;2.88;1.67;;;27.90;99.90;;;;;;8222253;28;20037;-85
2023/09/02 10:13:52;;;;;;;2.42;1.70;;;28.00;99.90;;;;;;8227612;28;20066;-87
2023/09/02 10:17:56;;;;;;;1.50;1.10;;;28.20;99.90;;;;;;8225200;28;20023;-88
2023/09/02 10:21:57;;;;;;;4.50;1.70;;;28.10;99.90;;;;;;8211769;28;20049;-86
2023/09/02 10:26:08;;;;;;;1.88;1.30;;;27.60;99.90;;;;;;8226862;28;20027;-86
2023/09/02 10:30:17;;;;;;;4.47;1.50;;;28.20;99.90;;;;;;8215541;28;20403;-87
2023/09/02 10:34:31;;;;;;;2.65;1.50;;;29.60;99.90;;;;;;8236290;28;20061;-87
2023/09/02 10:38:36;;;;;;;2.45;1.40;;;30.60;99.90;;;;;;8221939;28;20030;-87
2023/09/02 10:42:37;;;;;;;2.47;1.67;;;29.30;99.90;;;;;;8221980;28;20022;-87
2023/09/02 10:46:39;;;;;;;3.10;1.30;;;30.00;99.90;;;;;;8215553;28;20526;-87
2023/09/02 10:50:40;;;;;;;2.58;1.60;;;30.80;99.50;;;;;;8224692;28;20106;-87
2023/09/02 10:55:09;;;;;;;2.88;1.42;;;31.60;96.50;;;;;;8216861;28;20607;-87
2023/09/02 10:59:10;;;;;;;2.58;1.50;;;31.70;96.60;;;;;;8227040;28;20035;-87
2023/09/02 11:03:10;;;;;;;2.58;1.50;;;32.40;96.80;;;;;;8219156;28;20146;-87
2023/09/02 11:07:22;;;;;;;2.65;1.60;;;32.90;93.10;;;;;;8248798;28;20518;-87
2023/09/02 11:11:22;;;;;;;4.53;1.58;;;33.40;91.40;;;;;;8223995;28;20057;-87
2023/09/02 11:15:23;;;;;;;2.22;1.40;;;33.40;89.90;;;;;;8238337;28;20034;-87
2023/09/02 11:19:56;;;;;;;4.82;1.52;;;33.60;92.30;;;;;;8224069;28;20034;-88
2023/09/02 11:24:15;;;;;;;3.20;1.60;;;33.90;90.00;;;;;;8228631;28;20037;-87
2023/09/02 11:28:19;;;;;;;3.55;1.70;;;34.60;84.60;;;;;;8228883;28;20024;-87
2023/09/02 11:32:19;;;;;;;2.78;1.58;;;34.20;81.60;;;;;;8245092;28;20029;-86
2023/09/02 11:36:20;;;;;;;1.98;1.40;;;34.30;83.40;;;;;;8227695;28;20022;-87
2023/09/02 11:40:24;;;;;;;2.40;1.60;;;34.80;78.30;;;;;;8238331;28;20031;-87
2023/09/02 11:44:24;;;;;;;1.90;1.30;;;35.30;73.20;;;;;;8220603;28;20503;-88
2023/09/02 11:48:30;;;;;;;1.27;0.85;;;34.10;68.40;;;;;;8235368;28;20072;-87
2023/09/02 11:52:30;;;;;;;1.75;1.42;;;34.30;75.30;;;;;;8226884;28;20105;-87
2023/09/02 11:56:31;;;;;;;1.75;1.40;;;33.90;75.50;;;;;;8227427;28;20023;-87
2023/09/02 12:00:31;;;;;;;2.00;1.50;;;32.20;79.50;;;;;;8239303;28;20027;-87
2023/09/02 12:04:36;;;;;;;4.32;1.33;;;32.50;78.40;;;;;;8222135;28;20023;-87
2023/09/02 12:08:37;;;;;;;1.67;1.42;;;33.90;76.20;;;;;;8220283;28;20113;-87
2023/09/02 12:12:42;;;;;;;2.38;1.40;;;33.50;80.50;;;;;;8234202;28;20034;-86
2023/09/02 12:16:42;;;;;;;1.27;1.10;;;33.90;78.40;;;;;;8250221;28;20036;-87
2023/09/02 12:20:43;;;;;;;1.40;1.10;;;33.50;76.00;;;;;;8238425;28;20495;-87
2023/09/02 12:24:43;;;;;;;1.67;1.17;;;35.20;63.90;;;;;;8219631;28;20023;-86
2023/09/02 12:28:50;;;;;;;1.33;1.10;;;35.20;70.80;;;;;;8229818;28;20104;-87
2023/09/02 12:32:51;;;;;;;2.13;1.30;;;33.80;72.50;;;;;;8248741;28;20403;-86
2023/09/02 12:36:51;;;;;;;1.73;1.30;;;33.70;72.30;;;;;;8244331;28;20038;-87
2023/09/02 12:40:53;;;;;;;1.67;1.38;;;34.70;71.00;;;;;;8249623;28;20030;-87
2023/09/02 12:44:59;;;;;;;1.92;1.30;;;35.20;69.90;;;;;;8231269;28;20019;-86
2023/09/02 12:49:00;;;;;;;1.50;1.20;;;34.30;67.00;;;;;;8233198;28;20046;-86
2023/09/02 12:53:02;;;;;;;2.80;1.20;;;34.20;69.10;;;;;;8236525;28;20042;-86
2023/09/02 12:57:02;;;;;;;2.10;1.10;;;33.30;71.70;;;;;;8232072;28;20115;-87
2023/09/02 13:01:04;;;;;;;2.20;1.17;;;33.60;70.90;;;;;;8224335;28;20030;-87
2023/09/02 13:05:05;;;;;;;2.10;1.20;;;35.70;66.70;;;;;;8233193;28;20034;-86
2023/09/02 13:09:06;;;;;;;2.05;1.20;;;34.20;65.80;;;;;;8237359;28;20573;-87
2023/09/02 13:13:06;;;;;;;1.95;1.30;;;35.30;67.50;;;;;;8249829;28;20471;-87
2023/09/02 13:17:07;;;;;;;1.58;1.27;;;35.00;67.60;;;;;;8227785;28;20042;-87
2023/09/02 13:21:07;;;;;;;1.73;1.15;;;34.40;64.60;;;;;;8249942;22;20043;-81
2023/09/02 13:25:09;;;;;;;1.73;1.30;;;35.80;59.70;;;;;;8247887;28;20058;-81
2023/09/02 13:29:09;;;;;;;2.45;1.25;;;35.30;64.50;;;;;;8237332;28;20394;-82
2023/09/02 13:33:10;;;;;;;2.10;1.30;;;36.40;64.80;;;;;;8228216;28;20027;-81
2023/09/02 13:37:20;;;;;;;2.90;1.13;;;36.90;62.70;;;;;;8235710;28;20019;-80
2023/09/02 13:41:20;;;;;;;1.90;1.33;;;36.90;58.50;;;;;;8236307;28;20031;-81
2023/09/02 13:45:27;;;;;;;3.53;1.25;;;36.50;58.50;;;;;;8240775;28;20031;-80
2023/09/02 13:49:28;;;;;;;2.42;1.48;;;36.20;57.10;;;;;;8238213;28;20495;-80
2023/09/02 13:53:28;;;;;;;2.15;1.48;;;36.60;60.50;;;;;;8238341;28;20089;-81
2023/09/02 13:57:29;;;;;;;7.10;1.60;;;35.90;63.50;;;;;;8212044;28;20035;-81
2023/09/02 14:01:30;;;;;;;2.90;1.50;;;36.50;63.20;;;;;;8235094;28;20023;-81
2023/09/02 14:05:31;;;;;;;3.78;1.30;;;38.10;57.80;;;;;;8217807;28;20491;-81
2023/09/02 14:09:31;;;;;;;7.72;1.40;;;36.80;58.20;;;;;;8226520;28;20026;-80
2023/09/02 14:13:40;;;;;;;1.83;1.30;;;36.30;60.10;;;;;;8220790;28;20049;-80
2023/09/02 14:17:41;;;;;;;2.63;1.60;;;35.10;60.40;;;;;;8227903;28;20402;-80
2023/09/02 14:21:42;;;;;;;2.63;1.42;;;36.40;58.30;;;;;;8225587;28;20033;-80
2023/09/02 14:25:42;;;;;;;3.22;1.60;;;36.80;58.50;;;;;;8221974;28;20025;-80
2023/09/02 14:29:43;;;;;;;1.95;1.33;;;37.10;56.40;;;;;;8214509;28;20119;-80
2023/09/02 14:33:44;;;;;;;2.85;1.70;;;35.90;57.20;;;;;;8223059;28;20024;-80
2023/09/02 14:37:44;;;;;;;2.20;1.55;;;35.50;57.80;;;;;;8217815;28;20035;-80
2023/09/02 14:41:48;;;;;;;2.55;1.65;;;34.70;59.10;;;;;;8220018;28;20052;-81
2023/09/02 14:45:49;;;;;;;3.65;1.60;;;35.40;59.40;;;;;;8219821;28;20078;-81
2023/09/02 14:49:52;;;;;;;3.38;1.40;;;36.60;59.70;;;;;;8235512;28;20572;-81
2023/09/02 14:53:52;;;;;;;3.08;1.52;;;37.40;56.70;;;;;;8211263;28;20035;-81
2023/09/02 14:57:53;;;;;;;2.97;1.60;;;38.10;58.80;;;;;;8224010;28;20042;-81
2023/09/02 15:01:54;;;;;;;2.10;1.80;;;36.40;62.00;;;;;;8235862;28;20050;-80
2023/09/02 15:05:55;;;;;;;3.10;1.65;;;35.60;59.50;;;;;;8219157;28;20042;-80
2023/09/02 15:09:56;;;;;;;2.45;1.30;;;32.20;65.40;;;;;;8219388;28;20030;-81
2023/09/02 15:13:58;;;;;;;4.88;1.35;;;30.00;73.90;;;;;;8226518;28;20039;-80
2023/09/02 15:17:59;;;;;;;5.15;1.45;;;28.60;82.90;;;;;;8220062;28;20030;-81
2023/09/02 15:22:01;;;;;;;3.33;1.45;;;28.10;82.90;;;;;;8241605;28;20416;-81
2023/09/02 15:26:02;;;;;;;2.35;1.63;;;29.00;82.10;;;;;;8242150;28;20561;-80
2023/09/02 15:30:03;;;;;;;4.55;1.73;;;31.00;75.20;;;;;;8236084;28;20054;-80
2023/09/02 15:34:07;;;;;;;4.45;1.75;;;32.20;73.70;;;;;;8233219;28;20034;-82
2023/09/02 15:38:17;;;;;;;6.75;1.50;;;33.70;68.70;;;;;;8227371;28;20031;-82
2023/09/02 15:42:18;;;;;;;2.53;1.67;;;34.40;70.50;;;;;;8228422;28;20023;-80
2023/09/02 15:46:22;;;;;;;4.18;1.60;;;34.10;65.90;;;;;;8246710;28;20030;-80
2023/09/02 15:50:23;;;;;;;3.22;1.52;;;33.30;67.20;;;;;;8242858;28;20054;-80
2023/09/02 15:54:24;;;;;;;2.15;1.33;;;32.50;67.40;;;;;;8226481;28;20031;-79
2023/09/02 15:58:24;;;;;;;2.58;1.50;;;33.30;70.20;;;;;;8213667;28;20032;-80
2023/09/02 16:02:25;;;;;;;2.97;1.40;;;33.00;67.90;;;;;;8216802;28;20014;-80
2023/09/02 16:06:25;;;;;;;2.60;1.50;;;30.40;75.20;;;;;;8217676;28;20023;-80
2023/09/02 16:10:26;;;;;;;3.38;1.73;;;28.20;84.50;;;;;;8217801;28;20028;-79
2023/09/02 16:14:26;;;;;;;4.22;1.70;;;26.80;90.50;;;;;;8245419;28;20039;-80
2023/09/02 16:18:27;;;;;;;2.45;1.73;;;26.10;94.10;;;;;;8219137;28;20051;-79
2023/09/02 16:22:28;;;;;;;2.97;1.58;;;25.60;94.40;;;;;;8222855;28;20033;-80
2023/09/02 16:26:28;;;;;;;4.60;1.80;;;25.10;97.70;;;;;;8232685;28;20045;-80
2023/09/02 16:30:29;;;;;;;3.65;1.40;;;24.80;98.50;;;;;;8248903;28;20022;-81
2023/09/02 16:34:29;;;;;;;2.58;1.50;;;24.80;98.50;;;;;;8245990;28;20038;-80
2023/09/02 16:38:30;;;;;;;2.20;1.70;;;24.90;96.60;;;;;;8230115;28;20382;-80
2023/09/02 16:42:30;;;;;;;1.95;1.60;;;24.80;96.80;;;;;;8255367;28;20065;-80
2023/09/02 16:46:31;;;;;;;4.22;1.65;;;24.60;97.00;;;;;;8247831;28;20022;-80
2023/09/02 16:50:32;;;;;;;2.38;1.85;;;24.40;98.50;;;;;;8235363;28;20113;-80
2023/09/02 16:54:35;;;;;;;3.55;1.98;;;24.00;99.90;;;;;;8228229;28;20041;-80
2023/09/02 16:58:36;;;;;;;2.10;1.60;;;23.60;99.90;;;;;;8222145;28;20550;-80
2023/09/02 17:02:43;;;;;;;2.10;1.70;;;23.40;99.90;;;;;;8236714;28;20093;-83
2023/09/02 17:06:46;;;;;;;2.65;1.50;;;23.20;99.90;;;;;;8240144;28;20635;-84
2023/09/02 17:10:46;;;;;;;2.92;1.73;;;22.70;99.90;;;;;;8221161;28;20033;-83
2023/09/02 17:14:47;;;;;;;2.85;1.73;;;22.30;99.90;;;;;;8229732;28;20121;-83
2023/09/02 17:18:48;;;;;;;2.70;1.70;;;22.00;99.90;;;;;;8246444;28;20058;-83
2023/09/02 17:22:48;;;;;;;3.08;1.77;;;21.80;99.90;;;;;;8248156;28;20041;-83
2023/09/02 17:26:49;;;;;;;2.42;1.40;;;21.70;99.90;;;;;;8230229;28;20411;-83
2023/09/02 17:31:02;;;;;;;2.80;1.67;;;21.40;99.90;;;;;;8237998;28;20026;-83
2023/09/02 17:35:03;;;;;;;3.45;1.67;;;21.20;99.90;;;;;;8226276;28;20026;-83
2023/09/02 17:39:04;;;;;;;2.17;1.75;;;21.20;99.90;;;;;;8232917;28;20026;-79
2023/09/02 17:43:04;;;;;;;2.47;1.60;;;21.10;99.90;;;;;;8254232;28;20047;-79
2023/09/02 17:47:05;;;;;;;2.92;2.20;;;21.00;99.90;;;;;;8252927;28;20102;-80
2023/09/02 17:51:05;;;;;;;4.25;1.67;;;20.80;99.90;;;;;;8221927;28;20048;-78
2023/09/02 17:55:06;;;;;;;2.97;1.70;;;20.60;99.90;;;;;;8207889;28;20034;-79
2023/09/02 17:59:07;;;;;;;1.77;1.50;;;20.30;99.90;;;;;;8219061;28;20030;-79
2023/09/02 18:03:07;;;;;;;3.15;1.83;;;20.10;99.90;;;;;;8228780;28;20239;-80
2023/09/02 18:07:08;;;;;;;2.92;2.10;;;19.80;99.90;;;;;;8218256;28;20019;-78
2023/09/02 18:11:09;;;;;;;2.67;1.80;;;19.80;99.90;;;;;;8231505;28;20038;-78
2023/09/02 18:15:10;;;;;;;4.47;2.10;;;19.80;99.90;;;;;;8223551;28;20029;-79
2023/09/02 18:19:10;;;;;;;3.15;1.92;;;19.50;99.90;;;;;;8216828;28;20065;-79
2023/09/02 18:23:11;;;;;;;2.00;1.77;;;19.40;99.90;;;;;;8232992;28;20570;-79
2023/09/02 18:27:11;;;;;;;4.18;2.30;;;19.20;99.90;;;;;;8224013;28;20077;-79
2023/09/02 18:31:12;;;;;;;4.00;2.28;;;19.10;99.90;;;;;;8241652;28;20403;-79
2023/09/02 18:35:12;;;;;;;5.05;2.60;;;18.90;99.90;;;;;;8226630;28;20030;-78
2023/09/02 18:39:13;;;;;;;3.65;2.55;;;18.70;99.90;;;;;;8236265;28;20487;-79
2023/09/02 18:43:13;;;;;;;3.85;2.40;;;18.70;99.90;;;;;;8223297;28;20033;-78
2023/09/02 18:47:14;;;;;;;3.97;2.33;;;18.60;99.90;;;;;;8224225;28;20023;-78
2023/09/02 18:51:14;;;;;;;3.35;2.38;;;18.60;99.90;;;;;;8223941;28;20034;-79
2023/09/02 18:55:15;;;;;;;2.97;2.35;;;18.50;99.90;;;;;;8233607;28;20034;-79
2023/09/02 18:59:16;;;;;;;6.65;2.10;;;18.40;99.90;;;;;;8234794;28;20086;-78
2023/09/02 19:03:16;;;;;;;4.55;2.40;;;18.20;99.90;;;;;;8221425;28;20052;-79
2023/09/02 19:07:17;;;;;;;3.15;2.25;;;18.00;99.90;;;;;;8209543;28;20376;-78
2023/09/02 19:11:17;;;;;;;4.35;2.30;;;17.90;99.90;;;;;;8223756;28;20026;-79
2023/09/02 19:15:18;;;;;;;3.40;2.28;;;17.70;99.90;;;;;;8233186;28;20619;-80
2023/09/02 19:19:19;;;;;;;4.70;2.58;;;17.60;99.90;;;;;;8224925;28;20142;-79
2023/09/02 19:23:20;;;;;;;5.72;2.95;;;17.40;99.90;;;;;;8234265;28;20023;-79
2023/09/02 19:27:20;;;;;;;3.47;2.13;;;17.20;99.90;;;;;;8225114;28;20587;-79
2023/09/02 19:31:21;;;;;;;4.78;2.42;;;17.20;99.90;;;;;;8214385;28;20023;-79
2023/09/02 19:35:21;;;;;;;3.30;2.42;;;17.00;99.90;;;;;;8212496;28;20041;-77
2023/09/02 19:39:23;;;;;;;3.78;2.20;;;17.10;99.90;;;;;;8217457;28;20514;-78
2023/09/02 19:43:24;;;;;;;7.45;2.63;;;17.10;99.90;;;;;;8228138;28;20015;-77
2023/09/02 19:47:24;;;;;;;4.68;2.50;;;17.00;99.90;;;;;;8219929;28;20026;-78
2023/09/02 19:51:25;;;;;;;5.90;2.63;;;16.90;99.90;;;;;;8247015;28;20122;-79
2023/09/02 19:55:26;;;;;;;9.52;2.30;;;16.90;99.90;;;;;;8241214;28;20033;-79
2023/09/02 19:59:26;;;;;;;2.90;2.25;;;16.70;99.90;;;;;;8229569;28;20034;-78
2023/09/02 20:03:27;;;;;;;5.05;2.67;;;16.50;99.90;;;;;;8226869;28;20622;-78
2023/09/02 20:07:27;;;;;;;5.05;2.38;;;16.50;99.90;;;;;;8217871;28;20046;-77
2023/09/02 20:11:28;;;;;;;3.95;2.80;;;16.40;99.90;;;;;;8232897;28;21622;-78
2023/09/02 20:15:28;;;;;;;4.03;2.70;;;16.40;99.90;;;;;;8235988;28;20081;-77
2023/09/02 20:19:29;;;;;;;3.05;2.75;;;16.40;99.90;;;;;;8251032;28;20034;-78
2023/09/02 20:23:29;;;;;;;4.90;3.30;;;16.20;99.90;;;;;;8228335;28;20022;-78
2023/09/02 20:27:30;;;;;;;4.10;2.92;;;16.10;99.90;;;;;;8227787;28;20502;-79
2023/09/02 20:31:31;;;;;;;5.32;3.50;;;16.10;99.90;;;;;;8215195;28;20027;-77
2023/09/02 20:35:35;;;;;;;5.07;2.97;;;16.10;99.90;;;;;;8215327;28;20456;-79
2023/09/02 20:39:36;;;;;;;5.35;3.22;;;15.90;99.90;;;;;;8238914;28;20027;-78
2023/09/02 20:43:36;;;;;;;5.55;3.65;;;15.80;99.90;;;;;;8222276;28;20113;-77
2023/09/02 20:47:37;;;;;;;5.32;3.40;;;15.50;99.90;;;;;;8219140;28;20035;-77
2023/09/02 20:51:38;;;;;;;6.88;3.70;;;15.40;99.90;;;;;;8222930;28;20363;-79
2023/09/02 20:55:38;;;;;;;4.95;3.42;;;15.30;99.90;;;;;;8221579;28;20042;-78
2023/09/02 20:59:39;;;;;;;4.70;3.45;;;15.40;99.90;;;;;;8235569;28;20491;-78
2023/09/02 21:03:39;;;;;;;4.45;3.17;;;15.30;99.90;;;;;;8239124;28;20110;-78